sensor_id;sensor_type;location;lat;lon;timestamp;P1;durP1;ratioP1;P2;durP2;ratioP2
28523;SDS011;15734;50.904;6.922;2023-12-20T00:01:40;29.63;;;15.73;;
28523;SDS011;15734;50.904;6.922;2023-12-20T00:04:05;37.33;;;17.17;;
28523;SDS011;15734;50.904;6.922;2023-12-20T00:06:31;32.28;;;15.63;;
28523;SDS011;15734;50.904;6.922;2023-12-20T00:08:56;30.70;;;16.40;;
28523;SDS011;15734;50.904;6.922;2023-12-20T00:11:25;31.75;;;16.00;;
28523;SDS011;15734;50.904;6.922;2023-12-20T00:13:50;36.70;;;16.92;;
28523;SDS011;15734;50.904;6.922;2023-12-20T00:16:16;33.03;;;16.63;;
28523;SDS011;15734;50.904;6.922;2023-12-20T00:18:42;33.22;;;16.15;;
28523;SDS011;15734;50.904;6.922;2023-12-20T00:21:07;31.05;;;15.85;;
28523;SDS011;15734;50.904;6.922;2023-12-20T00:23:33;36.35;;;16.40;;
28523;SDS011;15734;50.904;6.922;2023-12-20T00:25:59;35.92;;;16.55;;
28523;SDS011;15734;50.904;6.922;2023-12-20T00:28:25;37.60;;;16.90;;
28523;SDS011;15734;50.904;6.922;2023-12-20T00:30:51;32.50;;;16.55;;
28523;SDS011;15734;50.904;6.922;2023-12-20T00:33:16;32.20;;;16.02;;
28523;SDS011;15734;50.904;6.922;2023-12-20T00:35:42;30.80;;;15.55;;
28523;SDS011;15734;50.904;6.922;2023-12-20T00:38:07;32.47;;;14.80;;
28523;SDS011;15734;50.904;6.922;2023-12-20T00:40:34;37.60;;;15.35;;
28523;SDS011;15734;50.904;6.922;2023-12-20T00:42:59;26.50;;;13.80;;
28523;SDS011;15734;50.904;6.922;2023-12-20T00:45:25;25.38;;;13.77;;
28523;SDS011;15734;50.904;6.922;2023-12-20T00:47:51;26.48;;;13.77;;
28523;SDS011;15734;50.904;6.922;2023-12-20T00:50:16;20.98;;;12.40;;
28523;SDS011;15734;50.904;6.922;2023-12-20T00:52:42;29.25;;;12.45;;
28523;SDS011;15734;50.904;6.922;2023-12-20T00:55:07;25.38;;;12.80;;
28523;SDS011;15734;50.904;6.922;2023-12-20T00:57:33;26.63;;;12.00;;
28523;SDS011;15734;50.904;6.922;2023-12-20T00:59:59;25.48;;;12.85;;
28523;SDS011;15734;50.904;6.922;2023-12-20T01:02:24;26.73;;;13.00;;
28523;SDS011;15734;50.904;6.922;2023-12-20T01:04:50;23.67;;;12.35;;
28523;SDS011;15734;50.904;6.922;2023-12-20T01:07:15;23.95;;;12.30;;
28523;SDS011;15734;50.904;6.922;2023-12-20T01:09:41;28.25;;;13.65;;
28523;SDS011;15734;50.904;6.922;2023-12-20T01:12:06;31.23;;;11.93;;
28523;SDS011;15734;50.904;6.922;2023-12-20T01:14:32;28.63;;;12.82;;
28523;SDS011;15734;50.904;6.922;2023-12-20T01:16:58;27.25;;;12.57;;
28523;SDS011;15734;50.904;6.922;2023-12-20T01:19:24;24.50;;;12.45;;
28523;SDS011;15734;50.904;6.922;2023-12-20T01:21:49;31.92;;;15.00;;
28523;SDS011;15734;50.904;6.922;2023-12-20T01:24:15;40.00;;;20.35;;
28523;SDS011;15734;50.904;6.922;2023-12-20T01:26:41;52.38;;;25.38;;
28523;SDS011;15734;50.904;6.922;2023-12-20T01:29:06;43.42;;;21.95;;
28523;SDS011;15734;50.904;6.922;2023-12-20T01:31:32;38.80;;;18.15;;
28523;SDS011;15734;50.904;6.922;2023-12-20T01:33:57;53.75;;;21.17;;
28523;SDS011;15734;50.904;6.922;2023-12-20T01:36:23;51.72;;;23.38;;
28523;SDS011;15734;50.904;6.922;2023-12-20T01:38:48;50.60;;;23.45;;
28523;SDS011;15734;50.904;6.922;2023-12-20T01:41:14;50.33;;;21.60;;
28523;SDS011;15734;50.904;6.922;2023-12-20T01:43:40;49.22;;;21.52;;
28523;SDS011;15734;50.904;6.922;2023-12-20T01:46:05;59.92;;;25.38;;
28523;SDS011;15734;50.904;6.922;2023-12-20T01:48:31;62.60;;;27.13;;
28523;SDS011;15734;50.904;6.922;2023-12-20T01:50:57;56.47;;;24.80;;
28523;SDS011;15734;50.904;6.922;2023-12-20T01:53:24;53.65;;;23.73;;
28523;SDS011;15734;50.904;6.922;2023-12-20T01:55:50;45.70;;;20.83;;
28523;SDS011;15734;50.904;6.922;2023-12-20T01:58:19;47.10;;;19.90;;
28523;SDS011;15734;50.904;6.922;2023-12-20T02:00:45;29.05;;;14.20;;
28523;SDS011;15734;50.904;6.922;2023-12-20T02:03:10;29.67;;;13.88;;
28523;SDS011;15734;50.904;6.922;2023-12-20T02:05:36;27.08;;;12.13;;
28523;SDS011;15734;50.904;6.922;2023-12-20T02:08:03;18.75;;;10.23;;
28523;SDS011;15734;50.904;6.922;2023-12-20T02:10:30;25.75;;;9.63;;
28523;SDS011;15734;50.904;6.922;2023-12-20T02:12:56;20.92;;;8.50;;
28523;SDS011;15734;50.904;6.922;2023-12-20T02:15:22;18.05;;;8.15;;
28523;SDS011;15734;50.904;6.922;2023-12-20T02:17:47;24.92;;;8.35;;
28523;SDS011;15734;50.904;6.922;2023-12-20T02:20:13;24.80;;;8.52;;
28523;SDS011;15734;50.904;6.922;2023-12-20T02:22:39;24.98;;;8.13;;
28523;SDS011;15734;50.904;6.922;2023-12-20T02:25:05;26.80;;;7.60;;
28523;SDS011;15734;50.904;6.922;2023-12-20T02:27:31;27.20;;;6.47;;
28523;SDS011;15734;50.904;6.922;2023-12-20T02:29:56;24.83;;;5.28;;
28523;SDS011;15734;50.904;6.922;2023-12-20T02:32:22;38.17;;;5.65;;
28523;SDS011;15734;50.904;6.922;2023-12-20T02:34:51;16.17;;;4.88;;
28523;SDS011;15734;50.904;6.922;2023-12-20T02:37:16;26.45;;;5.07;;
28523;SDS011;15734;50.904;6.922;2023-12-20T02:39:42;18.58;;;4.38;;
28523;SDS011;15734;50.904;6.922;2023-12-20T02:42:07;21.58;;;4.85;;
28523;SDS011;15734;50.904;6.922;2023-12-20T02:44:33;22.55;;;5.35;;
28523;SDS011;15734;50.904;6.922;2023-12-20T02:46:59;19.30;;;5.07;;
28523;SDS011;15734;50.904;6.922;2023-12-20T02:49:24;25.50;;;4.88;;
28523;SDS011;15734;50.904;6.922;2023-12-20T02:51:50;16.45;;;5.22;;
28523;SDS011;15734;50.904;6.922;2023-12-20T02:54:15;22.63;;;4.22;;
28523;SDS011;15734;50.904;6.922;2023-12-20T02:56:41;18.63;;;4.10;;
28523;SDS011;15734;50.904;6.922;2023-12-20T02:59:06;15.90;;;4.30;;
28523;SDS011;15734;50.904;6.922;2023-12-20T03:01:33;25.20;;;3.83;;
28523;SDS011;15734;50.904;6.922;2023-12-20T03:03:59;32.17;;;4.90;;
28523;SDS011;15734;50.904;6.922;2023-12-20T03:06:25;17.23;;;3.50;;
28523;SDS011;15734;50.904;6.922;2023-12-20T03:08:50;16.83;;;3.05;;
28523;SDS011;15734;50.904;6.922;2023-12-20T03:11:16;16.52;;;3.65;;
28523;SDS011;15734;50.904;6.922;2023-12-20T03:13:41;21.55;;;2.85;;
28523;SDS011;15734;50.904;6.922;2023-12-20T03:16:10;18.35;;;2.90;;
28523;SDS011;15734;50.904;6.922;2023-12-20T03:18:36;24.40;;;3.80;;
28523;SDS011;15734;50.904;6.922;2023-12-20T03:21:02;19.83;;;3.50;;
28523;SDS011;15734;50.904;6.922;2023-12-20T03:23:29;10.38;;;2.75;;
28523;SDS011;15734;50.904;6.922;2023-12-20T03:25:55;30.55;;;3.72;;
28523;SDS011;15734;50.904;6.922;2023-12-20T03:28:21;28.65;;;4.07;;
28523;SDS011;15734;50.904;6.922;2023-12-20T03:30:48;24.05;;;4.30;;
28523;SDS011;15734;50.904;6.922;2023-12-20T03:33:13;28.38;;;5.75;;
28523;SDS011;15734;50.904;6.922;2023-12-20T03:35:39;33.08;;;4.45;;
28523;SDS011;15734;50.904;6.922;2023-12-20T03:38:04;24.73;;;4.05;;
28523;SDS011;15734;50.904;6.922;2023-12-20T03:40:30;34.00;;;5.55;;
28523;SDS011;15734;50.904;6.922;2023-12-20T03:42:55;18.77;;;3.92;;
28523;SDS011;15734;50.904;6.922;2023-12-20T03:45:21;28.25;;;4.22;;
28523;SDS011;15734;50.904;6.922;2023-12-20T03:47:46;24.23;;;3.88;;
28523;SDS011;15734;50.904;6.922;2023-12-20T03:50:12;32.13;;;6.00;;
28523;SDS011;15734;50.904;6.922;2023-12-20T03:52:38;19.30;;;4.85;;
28523;SDS011;15734;50.904;6.922;2023-12-20T03:55:03;26.33;;;4.13;;
28523;SDS011;15734;50.904;6.922;2023-12-20T03:57:29;27.75;;;4.72;;
28523;SDS011;15734;50.904;6.922;2023-12-20T03:59:55;19.23;;;4.00;;
28523;SDS011;15734;50.904;6.922;2023-12-20T04:02:20;18.98;;;3.50;;
28523;SDS011;15734;50.904;6.922;2023-12-20T04:04:46;22.73;;;5.40;;
28523;SDS011;15734;50.904;6.922;2023-12-20T04:07:11;25.38;;;4.60;;
28523;SDS011;15734;50.904;6.922;2023-12-20T04:09:37;15.02;;;3.85;;
28523;SDS011;15734;50.904;6.922;2023-12-20T04:12:02;21.23;;;4.43;;
28523;SDS011;15734;50.904;6.922;2023-12-20T04:14:29;19.67;;;4.55;;
28523;SDS011;15734;50.904;6.922;2023-12-20T04:16:55;26.80;;;3.97;;
28523;SDS011;15734;50.904;6.922;2023-12-20T04:19:21;21.05;;;4.43;;
28523;SDS011;15734;50.904;6.922;2023-12-20T04:21:46;19.65;;;5.90;;
28523;SDS011;15734;50.904;6.922;2023-12-20T04:24:11;25.23;;;6.75;;
28523;SDS011;15734;50.904;6.922;2023-12-20T04:26:37;27.75;;;6.20;;
28523;SDS011;15734;50.904;6.922;2023-12-20T04:29:02;31.30;;;7.40;;
28523;SDS011;15734;50.904;6.922;2023-12-20T04:31:28;30.05;;;7.75;;
28523;SDS011;15734;50.904;6.922;2023-12-20T04:33:53;41.75;;;7.97;;
28523;SDS011;15734;50.904;6.922;2023-12-20T04:36:19;46.88;;;7.63;;
28523;SDS011;15734;50.904;6.922;2023-12-20T04:38:45;26.92;;;7.93;;
28523;SDS011;15734;50.904;6.922;2023-12-20T04:41:10;31.65;;;7.40;;
28523;SDS011;15734;50.904;6.922;2023-12-20T04:43:36;25.90;;;6.82;;
28523;SDS011;15734;50.904;6.922;2023-12-20T04:46:01;25.10;;;6.28;;
28523;SDS011;15734;50.904;6.922;2023-12-20T04:48:27;39.47;;;7.82;;
28523;SDS011;15734;50.904;6.922;2023-12-20T04:50:53;29.40;;;6.93;;
28523;SDS011;15734;50.904;6.922;2023-12-20T04:53:18;35.33;;;7.50;;
28523;SDS011;15734;50.904;6.922;2023-12-20T04:55:44;42.10;;;7.80;;
28523;SDS011;15734;50.904;6.922;2023-12-20T04:58:09;28.48;;;7.68;;
28523;SDS011;15734;50.904;6.922;2023-12-20T05:00:35;26.35;;;6.35;;
28523;SDS011;15734;50.904;6.922;2023-12-20T05:03:00;27.42;;;6.30;;
28523;SDS011;15734;50.904;6.922;2023-12-20T05:05:26;29.92;;;7.78;;
28523;SDS011;15734;50.904;6.922;2023-12-20T05:07:51;23.33;;;5.68;;
28523;SDS011;15734;50.904;6.922;2023-12-20T05:10:17;35.90;;;8.38;;
28523;SDS011;15734;50.904;6.922;2023-12-20T05:12:43;20.15;;;6.45;;
28523;SDS011;15734;50.904;6.922;2023-12-20T05:15:08;25.92;;;5.93;;
28523;SDS011;15734;50.904;6.922;2023-12-20T05:17:34;27.08;;;6.20;;
28523;SDS011;15734;50.904;6.922;2023-12-20T05:19:59;22.67;;;5.78;;
28523;SDS011;15734;50.904;6.922;2023-12-20T05:22:25;31.63;;;7.65;;
28523;SDS011;15734;50.904;6.922;2023-12-20T05:24:52;35.15;;;8.93;;
28523;SDS011;15734;50.904;6.922;2023-12-20T05:27:18;32.05;;;7.53;;
28523;SDS011;15734;50.904;6.922;2023-12-20T05:29:43;28.75;;;7.28;;
28523;SDS011;15734;50.904;6.922;2023-12-20T05:32:08;25.05;;;7.70;;
28523;SDS011;15734;50.904;6.922;2023-12-20T05:34:34;44.67;;;8.35;;
28523;SDS011;15734;50.904;6.922;2023-12-20T05:37:00;25.55;;;7.97;;
28523;SDS011;15734;50.904;6.922;2023-12-20T05:39:26;43.85;;;8.25;;
28523;SDS011;15734;50.904;6.922;2023-12-20T05:41:52;31.25;;;7.75;;
28523;SDS011;15734;50.904;6.922;2023-12-20T05:44:17;29.48;;;8.10;;
28523;SDS011;15734;50.904;6.922;2023-12-20T05:46:44;25.73;;;6.95;;
28523;SDS011;15734;50.904;6.922;2023-12-20T05:49:09;27.75;;;7.05;;
28523;SDS011;15734;50.904;6.922;2023-12-20T05:51:35;26.85;;;6.50;;
28523;SDS011;15734;50.904;6.922;2023-12-20T05:54:01;28.92;;;7.07;;
28523;SDS011;15734;50.904;6.922;2023-12-20T05:56:26;27.42;;;7.40;;
28523;SDS011;15734;50.904;6.922;2023-12-20T05:58:52;28.35;;;7.13;;
28523;SDS011;15734;50.904;6.922;2023-12-20T06:01:18;20.60;;;6.13;;
28523;SDS011;15734;50.904;6.922;2023-12-20T06:03:43;26.52;;;6.97;;
28523;SDS011;15734;50.904;6.922;2023-12-20T06:06:09;34.70;;;7.95;;
28523;SDS011;15734;50.904;6.922;2023-12-20T06:08:35;37.75;;;7.03;;
28523;SDS011;15734;50.904;6.922;2023-12-20T06:11:01;29.25;;;7.60;;
28523;SDS011;15734;50.904;6.922;2023-12-20T06:13:26;26.33;;;7.32;;
28523;SDS011;15734;50.904;6.922;2023-12-20T06:15:53;34.75;;;8.13;;
28523;SDS011;15734;50.904;6.922;2023-12-20T06:18:20;38.92;;;8.55;;
28523;SDS011;15734;50.904;6.922;2023-12-20T06:20:45;44.42;;;8.43;;
28523;SDS011;15734;50.904;6.922;2023-12-20T06:23:11;23.08;;;7.60;;
28523;SDS011;15734;50.904;6.922;2023-12-20T06:25:36;41.80;;;8.85;;
28523;SDS011;15734;50.904;6.922;2023-12-20T06:28:02;28.55;;;6.45;;
28523;SDS011;15734;50.904;6.922;2023-12-20T06:30:28;35.97;;;7.78;;
28523;SDS011;15734;50.904;6.922;2023-12-20T06:32:54;31.58;;;6.45;;
28523;SDS011;15734;50.904;6.922;2023-12-20T06:35:20;27.27;;;6.03;;
28523;SDS011;15734;50.904;6.922;2023-12-20T06:37:45;27.65;;;5.25;;
28523;SDS011;15734;50.904;6.922;2023-12-20T06:40:11;19.85;;;5.40;;
28523;SDS011;15734;50.904;6.922;2023-12-20T06:42:37;30.13;;;6.43;;
28523;SDS011;15734;50.904;6.922;2023-12-20T06:45:02;31.40;;;7.35;;
28523;SDS011;15734;50.904;6.922;2023-12-20T06:47:28;36.20;;;7.20;;
28523;SDS011;15734;50.904;6.922;2023-12-20T06:49:54;38.85;;;7.68;;
28523;SDS011;15734;50.904;6.922;2023-12-20T06:52:19;25.30;;;6.47;;
28523;SDS011;15734;50.904;6.922;2023-12-20T06:54:45;30.23;;;5.53;;
28523;SDS011;15734;50.904;6.922;2023-12-20T06:57:10;39.92;;;6.65;;
28523;SDS011;15734;50.904;6.922;2023-12-20T06:59:40;21.27;;;5.78;;
28523;SDS011;15734;50.904;6.922;2023-12-20T07:02:06;33.38;;;5.18;;
28523;SDS011;15734;50.904;6.922;2023-12-20T07:04:31;27.08;;;5.00;;
28523;SDS011;15734;50.904;6.922;2023-12-20T07:06:57;28.63;;;4.63;;
28523;SDS011;15734;50.904;6.922;2023-12-20T07:09:25;36.97;;;7.05;;
28523;SDS011;15734;50.904;6.922;2023-12-20T07:11:51;28.63;;;4.68;;
28523;SDS011;15734;50.904;6.922;2023-12-20T07:14:17;30.63;;;7.13;;
28523;SDS011;15734;50.904;6.922;2023-12-20T07:16:42;24.95;;;5.97;;
28523;SDS011;15734;50.904;6.922;2023-12-20T07:19:08;25.92;;;5.38;;
28523;SDS011;15734;50.904;6.922;2023-12-20T07:21:33;25.50;;;4.95;;
28523;SDS011;15734;50.904;6.922;2023-12-20T07:23:59;26.38;;;6.45;;
28523;SDS011;15734;50.904;6.922;2023-12-20T07:26:24;33.38;;;6.70;;
28523;SDS011;15734;50.904;6.922;2023-12-20T07:28:50;31.27;;;6.10;;
28523;SDS011;15734;50.904;6.922;2023-12-20T07:31:15;27.92;;;4.85;;
28523;SDS011;15734;50.904;6.922;2023-12-20T07:33:41;37.03;;;6.30;;
28523;SDS011;15734;50.904;6.922;2023-12-20T07:36:07;20.40;;;5.70;;
28523;SDS011;15734;50.904;6.922;2023-12-20T07:38:32;27.73;;;6.18;;
28523;SDS011;15734;50.904;6.922;2023-12-20T07:40:58;34.38;;;6.53;;
28523;SDS011;15734;50.904;6.922;2023-12-20T07:43:24;18.42;;;4.95;;
28523;SDS011;15734;50.904;6.922;2023-12-20T07:45:50;37.38;;;6.25;;
28523;SDS011;15734;50.904;6.922;2023-12-20T07:48:15;30.27;;;4.97;;
28523;SDS011;15734;50.904;6.922;2023-12-20T07:50:41;26.77;;;5.38;;
28523;SDS011;15734;50.904;6.922;2023-12-20T07:53:07;29.08;;;5.68;;
28523;SDS011;15734;50.904;6.922;2023-12-20T07:55:33;15.25;;;5.10;;
28523;SDS011;15734;50.904;6.922;2023-12-20T07:57:59;29.67;;;6.03;;
28523;SDS011;15734;50.904;6.922;2023-12-20T08:00:25;23.95;;;5.10;;
28523;SDS011;15734;50.904;6.922;2023-12-20T08:02:50;26.00;;;5.70;;
28523;SDS011;15734;50.904;6.922;2023-12-20T08:05:16;27.67;;;5.53;;
28523;SDS011;15734;50.904;6.922;2023-12-20T08:07:41;21.67;;;5.28;;
28523;SDS011;15734;50.904;6.922;2023-12-20T08:10:07;33.63;;;5.85;;
28523;SDS011;15734;50.904;6.922;2023-12-20T08:12:33;31.10;;;5.00;;
28523;SDS011;15734;50.904;6.922;2023-12-20T08:14:59;29.13;;;5.70;;
28523;SDS011;15734;50.904;6.922;2023-12-20T08:17:24;14.40;;;5.07;;
28523;SDS011;15734;50.904;6.922;2023-12-20T08:19:50;27.08;;;5.35;;
28523;SDS011;15734;50.904;6.922;2023-12-20T08:22:16;34.90;;;5.80;;
28523;SDS011;15734;50.904;6.922;2023-12-20T08:24:41;26.38;;;5.75;;
28523;SDS011;15734;50.904;6.922;2023-12-20T08:27:07;33.08;;;6.72;;
28523;SDS011;15734;50.904;6.922;2023-12-20T08:29:34;23.98;;;5.50;;
28523;SDS011;15734;50.904;6.922;2023-12-20T08:32:00;23.13;;;4.47;;
28523;SDS011;15734;50.904;6.922;2023-12-20T08:34:25;26.35;;;4.30;;
28523;SDS011;15734;50.904;6.922;2023-12-20T08:36:51;26.77;;;5.20;;
28523;SDS011;15734;50.904;6.922;2023-12-20T08:39:16;27.05;;;5.28;;
28523;SDS011;15734;50.904;6.922;2023-12-20T08:41:42;25.90;;;4.45;;
28523;SDS011;15734;50.904;6.922;2023-12-20T08:44:08;21.30;;;4.72;;
28523;SDS011;15734;50.904;6.922;2023-12-20T08:46:34;17.40;;;4.75;;
28523;SDS011;15734;50.904;6.922;2023-12-20T08:49:00;12.50;;;4.15;;
28523;SDS011;15734;50.904;6.922;2023-12-20T08:51:26;21.55;;;4.85;;
28523;SDS011;15734;50.904;6.922;2023-12-20T08:53:52;24.55;;;4.45;;
28523;SDS011;15734;50.904;6.922;2023-12-20T08:56:18;20.40;;;4.05;;
28523;SDS011;15734;50.904;6.922;2023-12-20T08:58:44;22.42;;;4.30;;
28523;SDS011;15734;50.904;6.922;2023-12-20T09:01:13;17.10;;;4.55;;
28523;SDS011;15734;50.904;6.922;2023-12-20T09:03:39;23.45;;;4.40;;
28523;SDS011;15734;50.904;6.922;2023-12-20T09:06:05;14.43;;;3.53;;
28523;SDS011;15734;50.904;6.922;2023-12-20T09:08:31;19.83;;;4.13;;
28523;SDS011;15734;50.904;6.922;2023-12-20T09:10:57;21.77;;;4.25;;
28523;SDS011;15734;50.904;6.922;2023-12-20T09:13:22;25.77;;;5.20;;
28523;SDS011;15734;50.904;6.922;2023-12-20T09:15:53;28.52;;;5.53;;
28523;SDS011;15734;50.904;6.922;2023-12-20T09:18:19;36.47;;;6.53;;
28523;SDS011;15734;50.904;6.922;2023-12-20T09:20:45;16.60;;;4.55;;
28523;SDS011;15734;50.904;6.922;2023-12-20T09:23:11;22.38;;;4.18;;
28523;SDS011;15734;50.904;6.922;2023-12-20T09:25:36;15.68;;;3.10;;
28523;SDS011;15734;50.904;6.922;2023-12-20T09:28:02;19.58;;;3.75;;
28523;SDS011;15734;50.904;6.922;2023-12-20T09:30:27;31.88;;;3.53;;
28523;SDS011;15734;50.904;6.922;2023-12-20T09:32:54;21.17;;;4.40;;
28523;SDS011;15734;50.904;6.922;2023-12-20T09:35:20;25.77;;;5.35;;
28523;SDS011;15734;50.904;6.922;2023-12-20T09:37:45;38.25;;;4.80;;
28523;SDS011;15734;50.904;6.922;2023-12-20T09:40:12;21.85;;;3.33;;
28523;SDS011;15734;50.904;6.922;2023-12-20T09:42:48;26.52;;;3.95;;
28523;SDS011;15734;50.904;6.922;2023-12-20T09:45:21;23.63;;;3.97;;
28523;SDS011;15734;50.904;6.922;2023-12-20T09:47:47;22.13;;;4.07;;
28523;SDS011;15734;50.904;6.922;2023-12-20T09:50:20;23.27;;;4.30;;
28523;SDS011;15734;50.904;6.922;2023-12-20T09:52:50;13.60;;;3.63;;
28523;SDS011;15734;50.904;6.922;2023-12-20T09:55:17;17.77;;;4.05;;
28523;SDS011;15734;50.904;6.922;2023-12-20T09:57:44;26.63;;;4.72;;
28523;SDS011;15734;50.904;6.922;2023-12-20T10:00:10;24.02;;;3.80;;
28523;SDS011;15734;50.904;6.922;2023-12-20T10:02:37;18.33;;;3.88;;
28523;SDS011;15734;50.904;6.922;2023-12-20T10:05:06;25.75;;;4.22;;
28523;SDS011;15734;50.904;6.922;2023-12-20T10:07:34;22.40;;;3.60;;
28523;SDS011;15734;50.904;6.922;2023-12-20T10:10:00;21.77;;;3.83;;
28523;SDS011;15734;50.904;6.922;2023-12-20T10:12:27;27.25;;;4.57;;
28523;SDS011;15734;50.904;6.922;2023-12-20T10:14:53;25.45;;;3.60;;
28523;SDS011;15734;50.904;6.922;2023-12-20T10:17:18;15.32;;;3.78;;
28523;SDS011;15734;50.904;6.922;2023-12-20T10:19:46;17.63;;;3.50;;
28523;SDS011;15734;50.904;6.922;2023-12-20T10:22:11;24.25;;;2.90;;
28523;SDS011;15734;50.904;6.922;2023-12-20T10:24:37;18.85;;;4.30;;
28523;SDS011;15734;50.904;6.922;2023-12-20T10:27:03;27.88;;;3.78;;
28523;SDS011;15734;50.904;6.922;2023-12-20T10:29:33;11.00;;;3.30;;
28523;SDS011;15734;50.904;6.922;2023-12-20T10:32:00;19.70;;;3.55;;
28523;SDS011;15734;50.904;6.922;2023-12-20T10:34:48;21.48;;;3.83;;
28523;SDS011;15734;50.904;6.922;2023-12-20T10:37:14;26.10;;;4.70;;
28523;SDS011;15734;50.904;6.922;2023-12-20T10:39:39;24.15;;;4.13;;
28523;SDS011;15734;50.904;6.922;2023-12-20T10:42:07;25.25;;;4.65;;
28523;SDS011;15734;50.904;6.922;2023-12-20T10:44:36;19.58;;;4.40;;
28523;SDS011;15734;50.904;6.922;2023-12-20T10:47:02;25.40;;;3.92;;
28523;SDS011;15734;50.904;6.922;2023-12-20T10:49:29;12.57;;;2.83;;
28523;SDS011;15734;50.904;6.922;2023-12-20T10:51:55;21.10;;;3.58;;
28523;SDS011;15734;50.904;6.922;2023-12-20T10:54:24;33.22;;;4.13;;
28523;SDS011;15734;50.904;6.922;2023-12-20T10:56:50;20.70;;;3.28;;
28523;SDS011;15734;50.904;6.922;2023-12-20T10:59:18;28.38;;;4.82;;
28523;SDS011;15734;50.904;6.922;2023-12-20T11:01:47;23.35;;;4.18;;
28523;SDS011;15734;50.904;6.922;2023-12-20T11:04:15;19.27;;;3.38;;
28523;SDS011;15734;50.904;6.922;2023-12-20T11:09:24;30.70;;;4.05;;
28523;SDS011;15734;50.904;6.922;2023-12-20T11:11:56;18.02;;;3.13;;
28523;SDS011;15734;50.904;6.922;2023-12-20T11:14:59;26.20;;;3.70;;
28523;SDS011;15734;50.904;6.922;2023-12-20T11:17:29;19.45;;;3.15;;
28523;SDS011;15734;50.904;6.922;2023-12-20T11:22:22;22.83;;;3.70;;
28523;SDS011;15734;50.904;6.922;2023-12-20T11:24:50;15.98;;;3.85;;
28523;SDS011;15734;50.904;6.922;2023-12-20T11:27:16;17.75;;;3.60;;
28523;SDS011;15734;50.904;6.922;2023-12-20T11:29:45;27.25;;;4.22;;
28523;SDS011;15734;50.904;6.922;2023-12-20T11:34:58;29.33;;;4.70;;
28523;SDS011;15734;50.904;6.922;2023-12-20T11:37:36;31.50;;;5.13;;
28523;SDS011;15734;50.904;6.922;2023-12-20T11:40:03;17.60;;;2.88;;
28523;SDS011;15734;50.904;6.922;2023-12-20T11:42:32;14.25;;;3.05;;
28523;SDS011;15734;50.904;6.922;2023-12-20T11:44:59;21.38;;;3.30;;
28523;SDS011;15734;50.904;6.922;2023-12-20T11:47:28;25.65;;;4.35;;
28523;SDS011;15734;50.904;6.922;2023-12-20T11:49:54;28.20;;;3.65;;
28523;SDS011;15734;50.904;6.922;2023-12-20T11:52:21;24.95;;;3.17;;
28523;SDS011;15734;50.904;6.922;2023-12-20T11:54:46;17.25;;;3.63;;
28523;SDS011;15734;50.904;6.922;2023-12-20T11:57:12;21.25;;;3.30;;
28523;SDS011;15734;50.904;6.922;2023-12-20T11:59:38;12.25;;;2.83;;
28523;SDS011;15734;50.904;6.922;2023-12-20T12:02:04;23.05;;;3.47;;
28523;SDS011;15734;50.904;6.922;2023-12-20T12:04:30;23.10;;;3.20;;
28523;SDS011;15734;50.904;6.922;2023-12-20T12:06:56;20.25;;;3.63;;
28523;SDS011;15734;50.904;6.922;2023-12-20T12:09:21;14.30;;;3.00;;
28523;SDS011;15734;50.904;6.922;2023-12-20T12:11:47;18.08;;;4.03;;
28523;SDS011;15734;50.904;6.922;2023-12-20T12:14:13;13.63;;;3.38;;
28523;SDS011;15734;50.904;6.922;2023-12-20T12:16:41;18.55;;;3.42;;
28523;SDS011;15734;50.904;6.922;2023-12-20T12:19:07;17.08;;;3.78;;
28523;SDS011;15734;50.904;6.922;2023-12-20T12:21:32;18.73;;;3.58;;
28523;SDS011;15734;50.904;6.922;2023-12-20T12:24:07;17.42;;;3.40;;
28523;SDS011;15734;50.904;6.922;2023-12-20T12:26:35;26.05;;;3.65;;
28523;SDS011;15734;50.904;6.922;2023-12-20T12:29:00;17.33;;;3.08;;
28523;SDS011;15734;50.904;6.922;2023-12-20T12:31:26;17.58;;;3.50;;
28523;SDS011;15734;50.904;6.922;2023-12-20T12:33:51;28.15;;;5.10;;
28523;SDS011;15734;50.904;6.922;2023-12-20T12:36:17;17.08;;;3.20;;
28523;SDS011;15734;50.904;6.922;2023-12-20T12:38:43;20.08;;;4.00;;
28523;SDS011;15734;50.904;6.922;2023-12-20T12:41:09;27.30;;;4.55;;
28523;SDS011;15734;50.904;6.922;2023-12-20T12:43:37;16.52;;;3.42;;
28523;SDS011;15734;50.904;6.922;2023-12-20T12:46:02;18.92;;;3.80;;
28523;SDS011;15734;50.904;6.922;2023-12-20T12:48:28;19.90;;;3.88;;
28523;SDS011;15734;50.904;6.922;2023-12-20T12:50:54;21.65;;;4.15;;
28523;SDS011;15734;50.904;6.922;2023-12-20T12:53:23;16.30;;;4.20;;
28523;SDS011;15734;50.904;6.922;2023-12-20T12:55:49;31.13;;;4.30;;
28523;SDS011;15734;50.904;6.922;2023-12-20T12:58:15;27.50;;;4.25;;
28523;SDS011;15734;50.904;6.922;2023-12-20T13:00:41;15.63;;;3.75;;
28523;SDS011;15734;50.904;6.922;2023-12-20T13:03:07;19.63;;;4.25;;
28523;SDS011;15734;50.904;6.922;2023-12-20T13:05:33;22.40;;;4.80;;
28523;SDS011;15734;50.904;6.922;2023-12-20T13:07:59;30.88;;;4.63;;
28523;SDS011;15734;50.904;6.922;2023-12-20T13:10:24;20.92;;;4.18;;
28523;SDS011;15734;50.904;6.922;2023-12-20T13:12:50;17.65;;;5.10;;
28523;SDS011;15734;50.904;6.922;2023-12-20T13:15:15;21.60;;;4.88;;
28523;SDS011;15734;50.904;6.922;2023-12-20T13:17:41;17.42;;;4.72;;
28523;SDS011;15734;50.904;6.922;2023-12-20T13:20:07;17.40;;;4.22;;
28523;SDS011;15734;50.904;6.922;2023-12-20T13:22:33;15.73;;;4.15;;
28523;SDS011;15734;50.904;6.922;2023-12-20T13:24:58;17.20;;;4.95;;
28523;SDS011;15734;50.904;6.922;2023-12-20T13:27:24;29.00;;;6.35;;
28523;SDS011;15734;50.904;6.922;2023-12-20T13:29:49;22.23;;;4.90;;
28523;SDS011;15734;50.904;6.922;2023-12-20T13:32:15;20.02;;;4.28;;
28523;SDS011;15734;50.904;6.922;2023-12-20T13:34:40;16.55;;;4.75;;
28523;SDS011;15734;50.904;6.922;2023-12-20T13:37:07;21.10;;;4.97;;
28523;SDS011;15734;50.904;6.922;2023-12-20T13:39:32;25.40;;;5.38;;
28523;SDS011;15734;50.904;6.922;2023-12-20T13:41:58;17.70;;;5.53;;
28523;SDS011;15734;50.904;6.922;2023-12-20T13:44:23;13.02;;;3.58;;
28523;SDS011;15734;50.904;6.922;2023-12-20T13:46:49;32.03;;;4.45;;
28523;SDS011;15734;50.904;6.922;2023-12-20T13:49:15;15.13;;;3.42;;
28523;SDS011;15734;50.904;6.922;2023-12-20T13:51:40;21.10;;;5.35;;
28523;SDS011;15734;50.904;6.922;2023-12-20T13:54:06;22.67;;;4.38;;
28523;SDS011;15734;50.904;6.922;2023-12-20T13:56:31;18.35;;;3.95;;
28523;SDS011;15734;50.904;6.922;2023-12-20T13:58:58;25.50;;;3.88;;
28523;SDS011;15734;50.904;6.922;2023-12-20T14:01:24;12.27;;;3.05;;
28523;SDS011;15734;50.904;6.922;2023-12-20T14:03:51;18.70;;;3.75;;
28523;SDS011;15734;50.904;6.922;2023-12-20T14:06:17;14.88;;;3.40;;
28523;SDS011;15734;50.904;6.922;2023-12-20T14:08:42;19.88;;;3.15;;
28523;SDS011;15734;50.904;6.922;2023-12-20T14:11:08;19.92;;;5.25;;
28523;SDS011;15734;50.904;6.922;2023-12-20T14:13:34;15.07;;;3.13;;
28523;SDS011;15734;50.904;6.922;2023-12-20T14:15:59;26.50;;;4.32;;
28523;SDS011;15734;50.904;6.922;2023-12-20T14:18:26;15.80;;;3.60;;
28523;SDS011;15734;50.904;6.922;2023-12-20T14:20:52;17.20;;;4.30;;
28523;SDS011;15734;50.904;6.922;2023-12-20T14:23:18;21.52;;;4.00;;
28523;SDS011;15734;50.904;6.922;2023-12-20T14:25:44;12.77;;;4.25;;
28523;SDS011;15734;50.904;6.922;2023-12-20T14:28:10;18.23;;;3.17;;
28523;SDS011;15734;50.904;6.922;2023-12-20T14:30:37;21.98;;;4.00;;
28523;SDS011;15734;50.904;6.922;2023-12-20T14:33:03;12.70;;;3.55;;
28523;SDS011;15734;50.904;6.922;2023-12-20T14:35:29;15.25;;;3.28;;